sensor_id;sensor_type;location;lat;lon;timestamp;pressure;altitude;pressure_sealevel;temperature;humidity
46718;BME280;32448;44.960;-0.698;2024-03-08T00:00:07;100144.31;;;9.06;100.00
46718;BME280;32448;44.960;-0.698;2024-03-08T00:02:41;100151.41;;;9.15;100.00
46718;BME280;32448;44.960;-0.698;2024-03-08T00:05:09;100132.09;;;9.01;100.00
46718;BME280;32448;44.960;-0.698;2024-03-08T00:07:36;100115.44;;;8.90;100.00
46718;BME280;32448;44.960;-0.698;2024-03-08T00:10:04;100140.84;;;9.04;100.00
46718;BME280;32448;44.960;-0.698;2024-03-08T00:12:31;100126.84;;;8.98;100.00
46718;BME280;32448;44.960;-0.698;2024-03-08T00:14:58;100125.06;;;8.94;100.00
46718;BME280;32448;44.960;-0.698;2024-03-08T00:17:25;100134.66;;;8.98;100.00
46718;BME280;32448;44.960;-0.698;2024-03-08T00:19:53;100129.38;;;8.95;100.00
46718;BME280;32448;44.960;-0.698;2024-03-08T00:22:20;100130.34;;;9.00;100.00
46718;BME280;32448;44.960;-0.698;2024-03-08T00:24:48;100126.84;;;8.98;100.00
46718;BME280;32448;44.960;-0.698;2024-03-08T00:27:17;100094.44;;;8.79;100.00
46718;BME280;32448;44.960;-0.698;2024-03-08T00:29:43;100126.75;;;8.92;100.00
46718;BME280;32448;44.960;-0.698;2024-03-08T00:32:12;100130.25;;;8.92;100.00
46718;BME280;32448;44.960;-0.698;2024-03-08T00:34:39;100121.47;;;8.87;100.00
46718;BME280;32448;44.960;-0.698;2024-03-08T00:37:06;100116.22;;;8.84;100.00
46718;BME280;32448;44.960;-0.698;2024-03-08T00:39:33;100098.72;;;8.74;100.00
46718;BME280;32448;44.960;-0.698;2024-03-08T00:42:00;100100.47;;;8.75;100.00
46718;BME280;32448;44.960;-0.698;2024-03-08T00:44:26;100096.91;;;8.68;100.00
46718;BME280;32448;44.960;-0.698;2024-03-08T00:46:53;100106.63;;;8.80;100.00
46718;BME280;32448;44.960;-0.698;2024-03-08T00:49:21;100083.94;;;8.71;100.00
46718;BME280;32448;44.960;-0.698;2024-03-08T00:51:49;100087.41;;;8.73;100.00
46718;BME280;32448;44.960;-0.698;2024-03-08T00:54:16;100088.28;;;8.71;100.00
46718;BME280;32448;44.960;-0.698;2024-03-08T00:56:43;100071.59;;;8.58;100.00
46718;BME280;32448;44.960;-0.698;2024-03-08T00:59:10;100087.28;;;8.64;100.00
46718;BME280;32448;44.960;-0.698;2024-03-08T01:01:37;100086.41;;;8.62;100.00
46718;BME280;32448;44.960;-0.698;2024-03-08T01:04:05;100082.00;;;8.57;100.00
46718;BME280;32448;44.960;-0.698;2024-03-08T01:06:35;100082.03;;;8.60;100.00
46718;BME280;32448;44.960;-0.698;2024-03-08T01:09:04;100071.47;;;8.51;100.00
46718;BME280;32448;44.960;-0.698;2024-03-08T01:11:34;100081.88;;;8.51;100.00
46718;BME280;32448;44.960;-0.698;2024-03-08T01:14:01;100069.69;;;8.47;100.00
46718;BME280;32448;44.960;-0.698;2024-03-08T01:16:29;100046.91;;;8.32;100.00
46718;BME280;32448;44.960;-0.698;2024-03-08T01:18:55;100071.44;;;8.48;100.00
46718;BME280;32448;44.960;-0.698;2024-03-08T01:21:22;100065.25;;;8.39;100.00
46718;BME280;32448;44.960;-0.698;2024-03-08T01:23:51;100069.69;;;8.45;100.00
46718;BME280;32448;44.960;-0.698;2024-03-08T01:26:18;100054.00;;;8.42;100.00
46718;BME280;32448;44.960;-0.698;2024-03-08T01:28:44;100051.38;;;8.40;100.00
46718;BME280;32448;44.960;-0.698;2024-03-08T01:31:11;100051.41;;;8.42;100.00
46718;BME280;32448;44.960;-0.698;2024-03-08T01:33:38;100040.03;;;8.35;100.00
46718;BME280;32448;44.960;-0.698;2024-03-08T01:36:05;100044.41;;;8.39;100.00
46718;BME280;32448;44.960;-0.698;2024-03-08T01:38:32;100043.59;;;8.44;100.00
46718;BME280;32448;44.960;-0.698;2024-03-08T01:41:00;100048.91;;;8.48;100.00
46718;BME280;32448;44.960;-0.698;2024-03-08T01:43:28;100039.31;;;8.47;100.00
46718;BME280;32448;44.960;-0.698;2024-03-08T01:45:57;100034.03;;;8.41;100.00
46718;BME280;32448;44.960;-0.698;2024-03-08T01:48:28;100025.28;;;8.36;100.00
46718;BME280;32448;44.960;-0.698;2024-03-08T01:50:57;100036.66;;;8.44;100.00
46718;BME280;32448;44.960;-0.698;2024-03-08T01:53:24;100042.84;;;8.49;100.00
46718;BME280;32448;44.960;-0.698;2024-03-08T01:55:54;100020.09;;;8.37;100.00
46718;BME280;32448;44.960;-0.698;2024-03-08T01:58:22;100014.03;;;8.38;100.00
46718;BME280;32448;44.960;-0.698;2024-03-08T02:00:50;100022.84;;;8.48;100.00
46718;BME280;32448;44.960;-0.698;2024-03-08T02:03:17;100015.06;;;8.51;100.00
46718;BME280;32448;44.960;-0.698;2024-03-08T02:05:44;100016.00;;;8.56;100.00
46718;BME280;32448;44.960;-0.698;2024-03-08T02:08:11;100011.69;;;8.58;100.00
46718;BME280;32448;44.960;-0.698;2024-03-08T02:10:41;100000.34;;;8.55;100.00
46718;BME280;32448;44.960;-0.698;2024-03-08T02:13:09;100005.59;;;8.56;100.00
46718;BME280;32448;44.960;-0.698;2024-03-08T02:15:59;100008.25;;;8.62;100.00
46718;BME280;32448;44.960;-0.698;2024-03-08T02:18:28;99998.63;;;8.55;100.00
46718;BME280;32448;44.960;-0.698;2024-03-08T02:20:56;99995.16;;;8.56;100.00
46718;BME280;32448;44.960;-0.698;2024-03-08T02:23:24;100002.19;;;8.60;100.00
46718;BME280;32448;44.960;-0.698;2024-03-08T02:25:52;100009.06;;;8.57;100.00
46718;BME280;32448;44.960;-0.698;2024-03-08T02:28:20;100005.59;;;8.56;100.00
46718;BME280;32448;44.960;-0.698;2024-03-08T02:30:47;99991.63;;;8.50;100.00
46718;BME280;32448;44.960;-0.698;2024-03-08T02:33:15;100019.47;;;8.57;100.00
46718;BME280;32448;44.960;-0.698;2024-03-08T02:35:45;100006.31;;;8.45;100.00
46718;BME280;32448;44.960;-0.698;2024-03-08T02:38:14;99976.56;;;8.30;100.00
46718;BME280;32448;44.960;-0.698;2024-03-08T02:40:46;100007.25;;;8.53;100.00
46718;BME280;32448;44.960;-0.698;2024-03-08T02:43:14;99972.19;;;8.29;100.00
46718;BME280;32448;44.960;-0.698;2024-03-08T02:45:42;100000.31;;;8.50;100.00
46718;BME280;32448;44.960;-0.698;2024-03-08T02:48:08;99991.53;;;8.44;100.00
46718;BME280;32448;44.960;-0.698;2024-03-08T02:50:36;100001.16;;;8.49;100.00
46718;BME280;32448;44.960;-0.698;2024-03-08T02:53:03;99992.44;;;8.46;100.00
46718;BME280;32448;44.960;-0.698;2024-03-08T02:55:30;99954.88;;;8.28;100.00
46718;BME280;32448;44.960;-0.698;2024-03-08T02:57:57;99988.13;;;8.48;100.00
46718;BME280;32448;44.960;-0.698;2024-03-08T03:00:25;99981.97;;;8.43;100.00
46718;BME280;32448;44.960;-0.698;2024-03-08T03:02:53;99980.22;;;8.42;100.00
46718;BME280;32448;44.960;-0.698;2024-03-08T03:05:21;99989.81;;;8.44;100.00
46718;BME280;32448;44.960;-0.698;2024-03-08T03:07:47;99983.69;;;8.39;100.00
46718;BME280;32448;44.960;-0.698;2024-03-08T03:10:18;99988.88;;;8.40;100.00
46718;BME280;32448;44.960;-0.698;2024-03-08T03:12:45;99997.63;;;8.46;100.00
46718;BME280;32448;44.960;-0.698;2024-03-08T03:15:12;99992.31;;;8.36;100.00
46718;BME280;32448;44.960;-0.698;2024-03-08T03:17:40;99991.47;;;8.40;100.00
46718;BME280;32448;44.960;-0.698;2024-03-08T03:20:08;99985.34;;;8.35;100.00
46718;BME280;32448;44.960;-0.698;2024-03-08T03:22:41;99987.13;;;8.38;100.00
46718;BME280;32448;44.960;-0.698;2024-03-08T03:25:08;99960.03;;;8.25;100.00
46718;BME280;32448;44.960;-0.698;2024-03-08T03:27:39;99976.66;;;8.35;100.00
46718;BME280;32448;44.960;-0.698;2024-03-08T03:30:07;99977.44;;;8.31;100.00
46718;BME280;32448;44.960;-0.698;2024-03-08T03:32:48;99973.97;;;8.30;100.00
46718;BME280;32448;44.960;-0.698;2024-03-08T03:35:17;99985.31;;;8.32;100.00
46718;BME280;32448;44.960;-0.698;2024-03-08T03:37:44;99960.72;;;8.12;100.00
46718;BME280;32448;44.960;-0.698;2024-03-08T03:40:17;99990.44;;;8.29;100.00
46718;BME280;32448;44.960;-0.698;2024-03-08T03:42:47;99988.72;;;8.28;100.00
46718;BME280;32448;44.960;-0.698;2024-03-08T03:45:14;99942.50;;;8.12;100.00
46718;BME280;32448;44.960;-0.698;2024-03-08T03:47:42;99973.06;;;8.27;100.00
46718;BME280;32448;44.960;-0.698;2024-03-08T03:50:09;99961.66;;;8.17;100.00
46718;BME280;32448;44.960;-0.698;2024-03-08T03:52:37;99968.72;;;8.27;100.00
46718;BME280;32448;44.960;-0.698;2024-03-08T03:55:04;99939.94;;;8.18;100.00
46718;BME280;32448;44.960;-0.698;2024-03-08T03:57:31;99932.22;;;8.23;100.00
46718;BME280;32448;44.960;-0.698;2024-03-08T03:59:58;99923.53;;;8.22;100.00
46718;BME280;32448;44.960;-0.698;2024-03-08T04:02:25;99921.75;;;8.20;100.00
46718;BME280;32448;44.960;-0.698;2024-03-08T04:04:53;99919.94;;;8.13;100.00
46718;BME280;32448;44.960;-0.698;2024-03-08T04:07:21;99897.22;;;8.01;100.00
46718;BME280;32448;44.960;-0.698;2024-03-08T04:09:48;99953.06;;;8.24;100.00
46718;BME280;32448;44.960;-0.698;2024-03-08T04:12:14;99950.38;;;8.18;100.00
46718;BME280;32448;44.960;-0.698;2024-03-08T04:14:42;99953.84;;;8.17;100.00
46718;BME280;32448;44.960;-0.698;2024-03-08T04:17:09;99959.00;;;8.14;100.00
46718;BME280;32448;44.960;-0.698;2024-03-08T04:19:36;99955.56;;;8.15;100.00
46718;BME280;32448;44.960;-0.698;2024-03-08T04:22:03;99970.34;;;8.21;100.00
46718;BME280;32448;44.960;-0.698;2024-03-08T04:24:30;99946.75;;;8.07;100.00
46718;BME280;32448;44.960;-0.698;2024-03-08T04:26:57;99958.13;;;8.14;100.00
46718;BME280;32448;44.960;-0.698;2024-03-08T04:29:25;99965.97;;;8.15;100.00
46718;BME280;32448;44.960;-0.698;2024-03-08T04:31:53;99957.19;;;8.10;100.00
46718;BME280;32448;44.960;-0.698;2024-03-08T04:34:22;99970.28;;;8.15;100.00
46718;BME280;32448;44.960;-0.698;2024-03-08T04:36:49;99992.03;;;8.20;100.00
46718;BME280;32448;44.960;-0.698;2024-03-08T04:39:16;99950.94;;;7.94;100.00
46718;BME280;32448;44.960;-0.698;2024-03-08T04:41:45;99985.88;;;8.13;100.00
46718;BME280;32448;44.960;-0.698;2024-03-08T04:44:12;99982.47;;;8.17;100.00
46718;BME280;32448;44.960;-0.698;2024-03-08T04:46:39;99981.59;;;8.17;100.00
46718;BME280;32448;44.960;-0.698;2024-03-08T04:49:06;99978.06;;;8.13;100.00
46718;BME280;32448;44.960;-0.698;2024-03-08T04:51:33;99990.28;;;8.19;100.00
46718;BME280;32448;44.960;-0.698;2024-03-08T04:54:00;99972.75;;;8.04;100.00
46718;BME280;32448;44.960;-0.698;2024-03-08T04:56:27;99986.72;;;8.12;100.00
46718;BME280;32448;44.960;-0.698;2024-03-08T04:58:54;99992.88;;;8.16;100.00
46718;BME280;32448;44.960;-0.698;2024-03-08T05:01:21;99984.09;;;8.11;100.00
46718;BME280;32448;44.960;-0.698;2024-03-08T05:03:48;99990.28;;;8.19;100.00
46718;BME280;32448;44.960;-0.698;2024-03-08T05:06:16;99978.13;;;8.18;100.00
46718;BME280;32448;44.960;-0.698;2024-03-08T05:08:43;99972.97;;;8.21;100.00
46718;BME280;32448;44.960;-0.698;2024-03-08T05:11:10;99974.78;;;8.26;100.00
46718;BME280;32448;44.960;-0.698;2024-03-08T05:13:37;99967.75;;;8.21;100.00
46718;BME280;32448;44.960;-0.698;2024-03-08T05:16:04;99962.56;;;8.22;100.00
46718;BME280;32448;44.960;-0.698;2024-03-08T05:18:31;99966.06;;;8.23;100.00
46718;BME280;32448;44.960;-0.698;2024-03-08T05:20:59;99978.28;;;8.27;100.00
46718;BME280;32448;44.960;-0.698;2024-03-08T05:23:25;99982.56;;;8.25;100.00
46718;BME280;32448;44.960;-0.698;2024-03-08T05:25:52;99986.09;;;8.27;100.00
46718;BME280;32448;44.960;-0.698;2024-03-08T05:28:19;99985.09;;;8.20;100.00
46718;BME280;32448;44.960;-0.698;2024-03-08T05:30:46;99983.44;;;8.25;100.00
46718;BME280;32448;44.960;-0.698;2024-03-08T05:33:13;99969.47;;;8.20;100.00
46718;BME280;32448;44.960;-0.698;2024-03-08T05:35:41;99976.53;;;8.26;100.00
46718;BME280;32448;44.960;-0.698;2024-03-08T05:38:08;99973.94;;;8.29;100.00
46718;BME280;32448;44.960;-0.698;2024-03-08T05:40:35;99979.13;;;8.29;100.00
46718;BME280;32448;44.960;-0.698;2024-03-08T05:43:01;99975.69;;;8.28;100.00
46718;BME280;32448;44.960;-0.698;2024-03-08T05:45:28;99978.34;;;8.31;100.00
46718;BME280;32448;44.960;-0.698;2024-03-08T05:47:55;99967.94;;;8.31;100.00
46718;BME280;32448;44.960;-0.698;2024-03-08T05:50:22;99949.53;;;8.21;100.00
46718;BME280;32448;44.960;-0.698;2024-03-08T05:52:49;99961.06;;;8.36;100.00
46718;BME280;32448;44.960;-0.698;2024-03-08T05:55:16;99964.50;;;8.34;100.00
46718;BME280;32448;44.960;-0.698;2024-03-08T05:57:43;99969.78;;;8.42;100.00
46718;BME280;32448;44.960;-0.698;2024-03-08T06:03:14;99948.84;;;8.32;100.00
46718;BME280;32448;44.960;-0.698;2024-03-08T06:05:42;99937.47;;;8.26;100.00
46718;BME280;32448;44.960;-0.698;2024-03-08T06:08:08;99954.13;;;8.37;100.00
46718;BME280;32448;44.960;-0.698;2024-03-08T06:10:35;99948.97;;;8.42;100.00
46718;BME280;32448;44.960;-0.698;2024-03-08T06:13:02;99930.69;;;8.37;100.00
46718;BME280;32448;44.960;-0.698;2024-03-08T06:15:29;99927.31;;;8.46;100.00
46718;BME280;32448;44.960;-0.698;2024-03-08T06:17:55;99940.34;;;8.46;100.00
46718;BME280;32448;44.960;-0.698;2024-03-08T06:20:22;99928.13;;;8.42;100.00
46718;BME280;32448;44.960;-0.698;2024-03-08T06:22:52;99927.22;;;8.39;100.00
46718;BME280;32448;44.960;-0.698;2024-03-08T06:25:20;99928.13;;;8.42;100.00
46718;BME280;32448;44.960;-0.698;2024-03-08T06:27:47;99897.53;;;8.24;100.00
46718;BME280;32448;44.960;-0.698;2024-03-08T06:30:14;99906.34;;;8.33;100.00
46718;BME280;32448;44.960;-0.698;2024-03-08T06:32:42;99926.44;;;8.44;100.00
46718;BME280;32448;44.960;-0.698;2024-03-08T06:35:10;99909.00;;;8.39;100.00
46718;BME280;32448;44.960;-0.698;2024-03-08T06:37:37;99927.34;;;8.47;100.00
46718;BME280;32448;44.960;-0.698;2024-03-08T06:40:05;99918.59;;;8.42;100.00
46718;BME280;32448;44.960;-0.698;2024-03-08T06:42:34;99917.72;;;8.42;100.00
46718;BME280;32448;44.960;-0.698;2024-03-08T06:45:02;99914.22;;;8.39;100.00
46718;BME280;32448;44.960;-0.698;2024-03-08T06:47:32;99929.00;;;8.42;100.00
46718;BME280;32448;44.960;-0.698;2024-03-08T06:50:00;99928.97;;;8.40;100.00
46718;BME280;32448;44.960;-0.698;2024-03-08T06:52:27;99932.44;;;8.39;100.00
46718;BME280;32448;44.960;-0.698;2024-03-08T06:54:53;99940.31;;;8.43;100.00
46718;BME280;32448;44.960;-0.698;2024-03-08T06:57:20;99936.00;;;8.46;100.00
46718;BME280;32448;44.960;-0.698;2024-03-08T06:59:49;99927.22;;;8.39;100.00
46718;BME280;32448;44.960;-0.698;2024-03-08T07:02:15;99924.66;;;8.41;100.00
46718;BME280;32448;44.960;-0.698;2024-03-08T07:04:43;99917.66;;;8.35;100.00
46718;BME280;32448;44.960;-0.698;2024-03-08T07:07:09;99913.38;;;8.39;100.00
46718;BME280;32448;44.960;-0.698;2024-03-08T07:09:36;99939.53;;;8.51;100.00
46718;BME280;32448;44.960;-0.698;2024-03-08T07:12:03;99938.66;;;8.51;100.00
46718;BME280;32448;44.960;-0.698;2024-03-08T07:14:30;99926.50;;;8.48;100.00
46718;BME280;32448;44.960;-0.698;2024-03-08T07:16:57;99945.63;;;8.53;100.00
46718;BME280;32448;44.960;-0.698;2024-03-08T07:19:24;99946.53;;;8.55;100.00
46718;BME280;32448;44.960;-0.698;2024-03-08T07:21:51;99937.81;;;8.50;100.00
46718;BME280;32448;44.960;-0.698;2024-03-08T07:24:18;99912.50;;;8.40;100.00
46718;BME280;32448;44.960;-0.698;2024-03-08T07:26:44;99930.00;;;8.53;100.00
46718;BME280;32448;44.960;-0.698;2024-03-08T07:29:16;99900.34;;;8.39;100.00
46718;BME280;32448;44.960;-0.698;2024-03-08T07:31:42;99919.56;;;8.52;100.00
46718;BME280;32448;44.960;-0.698;2024-03-08T07:34:28;99928.31;;;8.57;100.00
46718;BME280;32448;44.960;-0.698;2024-03-08T07:36:58;99936.13;;;8.57;100.00
46718;BME280;32448;44.960;-0.698;2024-03-08T07:39:26;99936.09;;;8.54;100.00
46718;BME280;32448;44.960;-0.698;2024-03-08T07:41:53;99936.19;;;8.61;100.00
46718;BME280;32448;44.960;-0.698;2024-03-08T07:44:20;99930.13;;;8.64;100.00
46718;BME280;32448;44.960;-0.698;2024-03-08T07:46:46;99929.25;;;8.63;100.00
46718;BME280;32448;44.960;-0.698;2024-03-08T07:49:13;99896.97;;;8.51;100.00
46718;BME280;32448;44.960;-0.698;2024-03-08T07:51:41;99909.28;;;8.61;100.00
46718;BME280;32448;44.960;-0.698;2024-03-08T07:54:11;99913.59;;;8.62;100.00
46718;BME280;32448;44.960;-0.698;2024-03-08T07:56:38;99877.03;;;8.50;100.00
46718;BME280;32448;44.960;-0.698;2024-03-08T07:59:06;99912.84;;;8.69;100.00
46718;BME280;32448;44.960;-0.698;2024-03-08T08:01:33;99905.03;;;8.70;100.00
46718;BME280;32448;44.960;-0.698;2024-03-08T08:04:00;99895.44;;;8.68;100.00
46718;BME280;32448;44.960;-0.698;2024-03-08T08:06:31;99901.53;;;8.68;100.00
46718;BME280;32448;44.960;-0.698;2024-03-08T08:09:01;99913.72;;;8.71;100.00
46718;BME280;32448;44.960;-0.698;2024-03-08T08:11:28;99919.75;;;8.67;100.00
46718;BME280;32448;44.960;-0.698;2024-03-08T08:13:59;99910.16;;;8.64;100.00
46718;BME280;32448;44.960;-0.698;2024-03-08T08:16:26;99909.31;;;8.65;100.00
46718;BME280;32448;44.960;-0.698;2024-03-08T08:18:53;99911.09;;;8.69;100.00
46718;BME280;32448;44.960;-0.698;2024-03-08T08:21:21;99888.41;;;8.58;100.00
46718;BME280;32448;44.960;-0.698;2024-03-08T08:23:48;99910.25;;;8.70;100.00
46718;BME280;32448;44.960;-0.698;2024-03-08T08:26:15;99905.16;;;8.81;100.00
46718;BME280;32448;44.960;-0.698;2024-03-08T08:28:42;99877.22;;;8.69;100.00
46718;BME280;32448;44.960;-0.698;2024-03-08T08:31:09;99897.34;;;8.84;100.00
46718;BME280;32448;44.960;-0.698;2024-03-08T08:33:36;99894.78;;;8.87;100.00
46718;BME280;32448;44.960;-0.698;2024-03-08T08:36:03;99880.78;;;8.77;100.00
46718;BME280;32448;44.960;-0.698;2024-03-08T08:38:32;99892.19;;;8.90;100.00
46718;BME280;32448;44.960;-0.698;2024-03-08T08:40:59;99904.41;;;8.96;100.00
46718;BME280;32448;44.960;-0.698;2024-03-08T08:43:26;99895.75;;;8.98;100.00
46718;BME280;32448;44.960;-0.698;2024-03-08T08:45:53;99906.25;;;9.09;100.00
46718;BME280;32448;44.960;-0.698;2024-03-08T08:48:22;99916.75;;;9.13;100.00
46718;BME280;32448;44.960;-0.698;2024-03-08T08:50:52;99904.53;;;9.11;100.00
46718;BME280;32448;44.960;-0.698;2024-03-08T08:56:27;99896.78;;;9.16;100.00
46718;BME280;32448;44.960;-0.698;2024-03-08T08:59:31;99889.84;;;9.21;100.00
46718;BME280;32448;44.960;-0.698;2024-03-08T09:01:58;99887.31;;;9.27;100.00
46718;BME280;32448;44.960;-0.698;2024-03-08T09:04:26;99889.91;;;9.28;100.00
46718;BME280;32448;44.960;-0.698;2024-03-08T09:06:54;99899.50;;;9.28;100.00
46718;BME280;32448;44.960;-0.698;2024-03-08T09:09:24;99882.97;;;9.26;100.00
46718;BME280;32448;44.960;-0.698;2024-03-08T09:11:54;99882.09;;;9.30;100.00
46718;BME280;32448;44.960;-0.698;2024-03-08T09:14:21;99876.06;;;9.35;100.00
46718;BME280;32448;44.960;-0.698;2024-03-08T09:16:48;99863.88;;;9.33;100.00
46718;BME280;32448;44.960;-0.698;2024-03-08T09:19:15;99836.00;;;9.23;100.00
46718;BME280;32448;44.960;-0.698;2024-03-08T09:21:43;99866.56;;;9.45;100.00
46718;BME280;32448;44.960;-0.698;2024-03-08T09:24:10;99860.44;;;9.40;100.00
46718;BME280;32448;44.960;-0.698;2024-03-08T09:26:37;99850.00;;;9.37;100.00
46718;BME280;32448;44.960;-0.698;2024-03-08T09:29:04;99862.28;;;9.55;100.00
46718;BME280;32448;44.960;-0.698;2024-03-08T09:31:33;99856.16;;;9.51;100.00
46718;BME280;32448;44.960;-0.698;2024-03-08T09:34:04;99844.94;;;9.58;100.00
46718;BME280;32448;44.960;-0.698;2024-03-08T09:36:32;99862.31;;;9.58;100.00
46718;BME280;32448;44.960;-0.698;2024-03-08T09:38:59;99855.34;;;9.55;100.00
46718;BME280;32448;44.960;-0.698;2024-03-08T09:41:27;99850.97;;;9.49;100.00
46718;BME280;32448;44.960;-0.698;2024-03-08T09:43:54;99868.41;;;9.61;100.00
46718;BME280;32448;44.960;-0.698;2024-03-08T09:46:22;99855.38;;;9.58;100.00
46718;BME280;32448;44.960;-0.698;2024-03-08T09:48:49;99861.47;;;9.63;100.00
46718;BME280;32448;44.960;-0.698;2024-03-08T09:51:17;99866.69;;;9.63;100.00
46718;BME280;32448;44.960;-0.698;2024-03-08T09:53:44;99855.38;;;9.63;100.00
46718;BME280;32448;44.960;-0.698;2024-03-08T09:56:13;99863.25;;;9.73;100.00
46718;BME280;32448;44.960;-0.698;2024-03-08T09:58:39;99854.56;;;9.70;100.00
46718;BME280;32448;44.960;-0.698;2024-03-08T10:01:24;99855.47;;;9.78;100.00
46718;BME280;32448;44.960;-0.698;2024-03-08T10:03:53;99846.78;;;9.79;100.00
46718;BME280;32448;44.960;-0.698;2024-03-08T10:06:24;99813.69;;;9.69;100.00
46718;BME280;32448;44.960;-0.698;2024-03-08T10:08:51;99819.84;;;9.81;100.00
46718;BME280;32448;44.960;-0.698;2024-03-08T10:11:18;99815.50;;;9.88;100.00
46718;BME280;32448;44.960;-0.698;2024-03-08T10:13:47;99810.31;;;9.93;100.00
46718;BME280;32448;44.960;-0.698;2024-03-08T10:16:15;99787.66;;;9.82;100.00
46718;BME280;32448;44.960;-0.698;2024-03-08T10:18:45;99808.56;;;9.96;100.00
46718;BME280;32448;44.960;-0.698;2024-03-08T10:21:12;99796.38;;;9.92;100.00
46718;BME280;32448;44.960;-0.698;2024-03-08T10:23:41;99795.53;;;9.98;100.00
46718;BME280;32448;44.960;-0.698;2024-03-08T10:26:11;99791.22;;;10.03;100.00
46718;BME280;32448;44.960;-0.698;2024-03-08T10:28:42;99791.19;;;10.07;100.00
46718;BME280;32448;44.960;-0.698;2024-03-08T10:31:11;99779.03;;;10.09;100.00
46718;BME280;32448;44.960;-0.698;2024-03-08T10:33:39;99761.63;;;10.08;100.00
46718;BME280;32448;44.960;-0.698;2024-03-08T10:36:10;99754.66;;;10.07;100.00
46718;BME280;32448;44.960;-0.698;2024-03-08T10:38:38;99754.72;;;10.21;100.00
46718;BME280;32448;44.960;-0.698;2024-03-08T10:41:07;99741.66;;;10.19;100.00
46718;BME280;32448;44.960;-0.698;2024-03-08T10:50:15;99700.75;;;10.25;100.00
46718;BME280;32448;44.960;-0.698;2024-03-08T10:52:21;99694.66;;;10.29;100.00
46718;BME280;32448;44.960;-0.698;2024-03-08T10:54:49;99697.28;;;10.33;100.00
46718;BME280;32448;44.960;-0.698;2024-03-08T10:57:18;99683.34;;;10.28;100.00
46718;BME280;32448;44.960;-0.698;2024-03-08T10:59:48;99699.91;;;10.45;100.00
46718;BME280;32448;44.960;-0.698;2024-03-08T11:02:22;99694.69;;;10.47;100.00
46718;BME280;32448;44.960;-0.698;2024-03-08T11:04:50;99701.63;;;10.52;100.00
46718;BME280;32448;44.960;-0.698;2024-03-08T11:07:17;99704.25;;;10.58;100.00
46718;BME280;32448;44.960;-0.698;2024-03-08T11:09:49;99695.53;;;10.53;100.00
46718;BME280;32448;44.960;-0.698;2024-03-08T11:12:20;99692.91;;;10.50;100.00
46718;BME280;32448;44.960;-0.698;2024-03-08T11:14:48;99706.88;;;10.58;100.00
46718;BME280;32448;44.960;-0.698;2024-03-08T11:17:20;99703.38;;;10.56;100.00
46718;BME280;32448;44.960;-0.698;2024-03-08T11:19:49;99714.72;;;10.58;100.00
46718;BME280;32448;44.960;-0.698;2024-03-08T11:22:23;99700.78;;;10.56;100.00
46718;BME280;32448;44.960;-0.698;2024-03-08T11:24:54;99712.94;;;10.64;100.00
46718;BME280;32448;44.960;-0.698;2024-03-08T11:27:30;99721.66;;;10.64;100.00
46718;BME280;32448;44.960;-0.698;2024-03-08T11:30:05;99711.22;;;10.63;100.00
46718;BME280;32448;44.960;-0.698;2024-03-08T11:32:45;99717.34;;;10.60;100.00
46718;BME280;32448;44.960;-0.698;2024-03-08T11:35:22;99695.56;;;10.49;100.00
46718;BME280;32448;44.960;-0.698;2024-03-08T11:37:50;99700.75;;;10.50;100.00
46718;BME280;32448;44.960;-0.698;2024-03-08T11:40:17;99722.53;;;10.66;100.00
46718;BME280;32448;44.960;-0.698;2024-03-08T11:42:47;99712.94;;;10.62;100.00
46718;BME280;32448;44.960;-0.698;2024-03-08T11:45:15;99715.56;;;10.73;100.00
46718;BME280;32448;44.960;-0.698;2024-03-08T11:47:44;99699.03;;;10.69;100.00
46718;BME280;32448;44.960;-0.698;2024-03-08T11:50:17;99691.19;;;10.60;100.00
46718;BME280;32448;44.960;-0.698;2024-03-08T11:52:46;99712.09;;;10.78;100.00
46718;BME280;32448;44.960;-0.698;2024-03-08T11:55:13;99697.25;;;10.74;100.00
46718;BME280;32448;44.960;-0.698;2024-03-08T11:57:40;99680.72;;;10.72;100.00
46718;BME280;32448;44.960;-0.698;2024-03-08T12:00:15;99698.13;;;10.87;100.00
46718;BME280;32448;44.960;-0.698;2024-03-08T12:03:05;99703.34;;;10.91;100.00
46718;BME280;32448;44.960;-0.698;2024-03-08T12:05:33;99648.50;;;10.64;100.00
46718;BME280;32448;44.960;-0.698;2024-03-08T12:08:01;99682.41;;;10.96;100.00
46718;BME280;32448;44.960;-0.698;2024-03-08T12:10:29;99670.22;;;11.00;100.00
46718;BME280;32448;44.960;-0.698;2024-03-08T12:12:58;99659.75;;;10.93;100.00
46718;BME280;32448;44.960;-0.698;2024-03-08T12:15:31;99671.09;;;10.97;100.00
46718;BME280;32448;44.960;-0.698;2024-03-08T12:18:00;99671.09;;;10.99;100.00
46718;BME280;32448;44.960;-0.698;2024-03-08T12:20:28;99639.75;;;10.88;100.00
46718;BME280;32448;44.960;-0.698;2024-03-08T12:22:59;99667.59;;;10.98;100.00
46718;BME280;32448;44.960;-0.698;2024-03-08T12:25:35;99669.31;;;11.05;100.00
46718;BME280;32448;44.960;-0.698;2024-03-08T12:28:12;99678.03;;;11.15;100.00
46718;BME280;32448;44.960;-0.698;2024-03-08T12:30:49;99663.22;;;11.15;100.00
46718;BME280;32448;44.960;-0.698;2024-03-08T12:33:17;99661.44;;;11.20;100.00
46718;BME280;32448;44.960;-0.698;2024-03-08T12:35:55;99655.28;;;11.27;100.00
46718;BME280;32448;44.960;-0.698;2024-03-08T12:38:23;99654.41;;;11.31;100.00
46718;BME280;32448;44.960;-0.698;2024-03-08T12:40:59;99648.31;;;11.32;100.00
46718;BME280;32448;44.960;-0.698;2024-03-08T12:43:27;99655.25;;;11.38;100.00
46718;BME280;32448;44.960;-0.698;2024-03-08T12:45:59;99654.38;;;11.44;100.00
46718;BME280;32448;44.960;-0.698;2024-03-08T12:48:25;99648.25;;;11.43;100.00
46718;BME280;32448;44.960;-0.698;2024-03-08T12:50:52;99655.19;;;11.49;100.00
46718;BME280;32448;44.960;-0.698;2024-03-08T12:53:21;99648.22;;;11.52;100.00
46718;BME280;32448;44.960;-0.698;2024-03-08T12:55:50;99625.59;;;11.39;100.00
46718;BME280;32448;44.960;-0.698;2024-03-08T12:58:17;99647.28;;;11.64;100.00
46718;BME280;32448;44.960;-0.698;2024-03-08T13:00:44;99642.06;;;11.61;100.00
46718;BME280;32448;44.960;-0.698;2024-03-08T13:03:11;99622.91;;;11.56;100.00